Tallinn, Estland

12:02 PM EET op 26 februari 2017 (GMT +0200)
Ulemiste | | Change Station

Hoogte 128 ft 59.41 °N, 24.83 °E | Updated 12 minutes ago

Overcast
Geheel bewolkt
32 °F
Voelt als 24 °F
N
9
Wind Variabel Wind van zuid

Vandaag
Hoog -- | Laag -- °F
--% Kans op neerslag
Gisteren
Hoog -- | Laag -- °F
Precip. -- inches
Druk 29.36 inches
Zicht 6.2 mijlen
Wolken Merendeels bewolkt 1100 ft
Geheel bewolkt 2700 ft
Gevoelstemperatuur 24 °F
Dauwpunt 30 °F
Vochtigheid 93%
Neerslag 0.00 inches
Dikte sneeuw Niet beschikbaar.
7:26 AM 5:41 PM
Afnemende halvemaan, 0% visible
METAR EETN 260950Z 17008KT 150V220 9999 BKN011 OVC027 M00/M01 Q0994 R08/490295 NOSIG
Druk 29.36 inches
Zicht 6.2 mijlen
Wolken Merendeels bewolkt 1100 ft
Geheel bewolkt 2700 ft
Gevoelstemperatuur 24 °F
Dauwpunt 30 °F
Vochtigheid 93%
Neerslag 0.00 inches
Dikte sneeuw Niet beschikbaar.
7:26 AM 5:41 PM
Afnemende halvemaan, 0% visible
METAR EETN 260950Z 17008KT 150V220 9999 BKN011 OVC027 M00/M01 Q0994 R08/490295 NOSIG

Get Your Daily Forecast Email!

Thanks for signing up!

Be on the lookout for a verification email in your inbox.

You'll start receiving the daily forecast at 8 AM.

×

10-Day Weather Forecast

×

Almanac

Astronomie

Feb. 26, 2017 Opkomst Ondergang
Werkelijke tijd
Burgerlijke schemering
Nautische schemering
Astronomische schemering
Maan
Golflengte van het zichtbare licht
Daglengte
Tomorrow will be .
, % of the Moon is Illuminated

Extremen vandaag

Country Highs Country Lows

Community

WunderPhotos

Upload Photos

1,962,540 foto’s ge-upload!

WunderBlog® & News

Nearby

Luchtkwaliteit

  Luchtkwaliteit LK-index Verontreinigende stof
Not available.

Dikte sneeuw

Station Depth Geometrische hoogte

Aardbevingen

Stad Distance Mag. Time & Date
Minimum magnitude displayed is 2.5.

Watertemperatuur langs de kust

Plaats Temperatuur

Stations

Nabije weerstations

Locatie station Temp. Gevoelstemperatuur Dauwpunt Vochtigheid Wind Precip. Hoogte Geactualiseerd Type